Terminal Aerodrome Forecast
Issued by NWS Sioux Falls, SD

Home | Current Version | Previous Version | Text Only | Print | Product List | Glossary On
Versions: 1 2 3 4 5 6 7 8 9 10 11 12 13 14 15 16 17 18 19
000
FTUS43 KFSD 200531
TAFSUX
TAF
KSUX 200531Z 2006/2106 13007KT 1/2SM -DZ FG OVC003
      TEMPO 2006/2008 1/4SM -DZ FG VV002
     FM201500 14009KT 1SM BR OVC003
     FM201700 14007KT 4SM -DZ BR OVC008
     FM202300 11007KT 6SM BR OVC010=

USA.gov is the U.S. government's official web portal to all federal, state and local government web resources and services.